Terminal Aerodrome Forecast
Issued by NWS Austin/San Antonio, TX

Current Version | Previous Version | Text Only | Print | Product List | Glossary On
Versions: 1 2 3 4 5 6 7 8 9 10 11 12 13 14 15
000
FTUS44 KEWX 061120
TAFSAT
TAF
KSAT 061120Z 0612/0718 14013KT 4SM BR OVC010
     FM061900 15012KT P6SM VCSH BKN025
     FM062100 16015KT P6SM VCSH BKN040
     FM070400 16011KT P6SM BKN015
     FM070900 15012KT P6SM OVC007=

USA.gov is the U.S. government's official web portal to all federal, state and local government web resources and services.